sensor_id;sensor_type;location;lat;lon;timestamp;temperature;humidity
17296;DHT22;8766;51.480;6.872;2022-10-16T00:00:38;15.20;72.10
17296;DHT22;8766;51.480;6.872;2022-10-16T00:03:05;15.20;72.10
17296;DHT22;8766;51.480;6.872;2022-10-16T00:05:33;15.20;72.20
17296;DHT22;8766;51.480;6.872;2022-10-16T00:07:59;15.20;72.20
17296;DHT22;8766;51.480;6.872;2022-10-16T00:10:29;15.10;72.20
17296;DHT22;8766;51.480;6.872;2022-10-16T00:12:56;15.10;72.20
17296;DHT22;8766;51.480;6.872;2022-10-16T00:15:23;15.10;72.30
17296;DHT22;8766;51.480;6.872;2022-10-16T00:17:50;15.10;72.30
17296;DHT22;8766;51.480;6.872;2022-10-16T00:20:17;15.10;72.30
17296;DHT22;8766;51.480;6.872;2022-10-16T00:22:43;15.10;72.30
17296;DHT22;8766;51.480;6.872;2022-10-16T00:25:10;15.10;72.30
17296;DHT22;8766;51.480;6.872;2022-10-16T00:27:39;15.10;72.40
17296;DHT22;8766;51.480;6.872;2022-10-16T00:30:07;15.10;72.40
17296;DHT22;8766;51.480;6.872;2022-10-16T00:32:34;15.00;72.40
17296;DHT22;8766;51.480;6.872;2022-10-16T00:35:01;15.00;72.40
17296;DHT22;8766;51.480;6.872;2022-10-16T00:37:29;15.00;72.40
17296;DHT22;8766;51.480;6.872;2022-10-16T00:39:56;15.00;72.40
17296;DHT22;8766;51.480;6.872;2022-10-16T00:42:23;15.00;72.40
17296;DHT22;8766;51.480;6.872;2022-10-16T00:44:52;15.00;72.50
17296;DHT22;8766;51.480;6.872;2022-10-16T00:47:22;15.00;72.50
17296;DHT22;8766;51.480;6.872;2022-10-16T00:49:58;15.00;72.40
17296;DHT22;8766;51.480;6.872;2022-10-16T00:52:26;15.00;72.50
17296;DHT22;8766;51.480;6.872;2022-10-16T00:54:54;15.00;72.40
17296;DHT22;8766;51.480;6.872;2022-10-16T00:57:21;15.00;72.40
17296;DHT22;8766;51.480;6.872;2022-10-16T00:59:48;15.00;72.40
17296;DHT22;8766;51.480;6.872;2022-10-16T01:02:17;15.00;72.40
17296;DHT22;8766;51.480;6.872;2022-10-16T01:04:46;15.00;72.40
17296;DHT22;8766;51.480;6.872;2022-10-16T01:07:20;15.00;72.40
17296;DHT22;8766;51.480;6.872;2022-10-16T01:10:02;14.90;72.40
17296;DHT22;8766;51.480;6.872;2022-10-16T01:12:40;14.90;72.40
17296;DHT22;8766;51.480;6.872;2022-10-16T01:15:13;14.90;72.50
17296;DHT22;8766;51.480;6.872;2022-10-16T01:17:47;14.90;72.50
17296;DHT22;8766;51.480;6.872;2022-10-16T01:20:22;14.90;72.50
17296;DHT22;8766;51.480;6.872;2022-10-16T01:23:06;14.90;72.60
17296;DHT22;8766;51.480;6.872;2022-10-16T01:25:51;14.80;72.60
17296;DHT22;8766;51.480;6.872;2022-10-16T01:28:27;14.80;72.60
17296;DHT22;8766;51.480;6.872;2022-10-16T01:30:58;14.80;72.60
17296;DHT22;8766;51.480;6.872;2022-10-16T01:33:30;14.80;72.60
17296;DHT22;8766;51.480;6.872;2022-10-16T01:36:04;14.80;72.70
17296;DHT22;8766;51.480;6.872;2022-10-16T01:38:34;14.80;72.70
17296;DHT22;8766;51.480;6.872;2022-10-16T01:41:08;14.70;72.70
17296;DHT22;8766;51.480;6.872;2022-10-16T01:43:40;14.70;72.80
17296;DHT22;8766;51.480;6.872;2022-10-16T01:46:10;14.70;72.80
17296;DHT22;8766;51.480;6.872;2022-10-16T01:48:37;14.70;72.80
17296;DHT22;8766;51.480;6.872;2022-10-16T01:51:06;14.70;72.70
17296;DHT22;8766;51.480;6.872;2022-10-16T01:53:35;14.80;72.60
17296;DHT22;8766;51.480;6.872;2022-10-16T01:56:04;14.80;72.50
17296;DHT22;8766;51.480;6.872;2022-10-16T01:58:37;14.80;72.40
17296;DHT22;8766;51.480;6.872;2022-10-16T02:01:07;14.90;72.30
17296;DHT22;8766;51.480;6.872;2022-10-16T02:03:36;14.90;72.30
17296;DHT22;8766;51.480;6.872;2022-10-16T02:06:04;14.90;72.30
17296;DHT22;8766;51.480;6.872;2022-10-16T02:08:31;14.90;72.10
17296;DHT22;8766;51.480;6.872;2022-10-16T02:11:00;14.90;72.10
17296;DHT22;8766;51.480;6.872;2022-10-16T02:13:30;14.90;72.10
17296;DHT22;8766;51.480;6.872;2022-10-16T02:16:01;15.00;72.10
17296;DHT22;8766;51.480;6.872;2022-10-16T02:18:28;15.00;72.10
17296;DHT22;8766;51.480;6.872;2022-10-16T02:21:00;15.00;72.00
17296;DHT22;8766;51.480;6.872;2022-10-16T02:23:35;15.00;72.00
17296;DHT22;8766;51.480;6.872;2022-10-16T02:26:06;14.90;72.00
17296;DHT22;8766;51.480;6.872;2022-10-16T02:28:38;14.90;72.20
17296;DHT22;8766;51.480;6.872;2022-10-16T02:31:10;14.90;72.30
17296;DHT22;8766;51.480;6.872;2022-10-16T02:33:39;14.80;72.30
17296;DHT22;8766;51.480;6.872;2022-10-16T02:36:07;14.80;72.30
17296;DHT22;8766;51.480;6.872;2022-10-16T02:38:34;14.80;72.40
17296;DHT22;8766;51.480;6.872;2022-10-16T02:41:02;14.80;72.30
17296;DHT22;8766;51.480;6.872;2022-10-16T02:43:30;14.90;72.30
17296;DHT22;8766;51.480;6.872;2022-10-16T02:45:56;14.90;72.20
17296;DHT22;8766;51.480;6.872;2022-10-16T02:48:25;14.90;72.10
17296;DHT22;8766;51.480;6.872;2022-10-16T02:50:51;14.90;72.10
17296;DHT22;8766;51.480;6.872;2022-10-16T02:53:18;14.90;72.20
17296;DHT22;8766;51.480;6.872;2022-10-16T02:55:45;14.80;72.10
17296;DHT22;8766;51.480;6.872;2022-10-16T02:58:12;14.80;72.20
17296;DHT22;8766;51.480;6.872;2022-10-16T03:00:39;14.80;72.20
17296;DHT22;8766;51.480;6.872;2022-10-16T03:03:06;14.90;72.30
17296;DHT22;8766;51.480;6.872;2022-10-16T03:05:34;14.90;72.20
17296;DHT22;8766;51.480;6.872;2022-10-16T03:08:01;14.80;72.20
17296;DHT22;8766;51.480;6.872;2022-10-16T03:10:28;14.90;72.20
17296;DHT22;8766;51.480;6.872;2022-10-16T03:12:55;14.90;72.20
17296;DHT22;8766;51.480;6.872;2022-10-16T03:15:21;14.90;72.20
17296;DHT22;8766;51.480;6.872;2022-10-16T03:17:48;14.90;72.10
17296;DHT22;8766;51.480;6.872;2022-10-16T03:20:15;14.90;72.10
17296;DHT22;8766;51.480;6.872;2022-10-16T03:22:43;14.90;72.20
17296;DHT22;8766;51.480;6.872;2022-10-16T03:25:10;14.90;72.20
17296;DHT22;8766;51.480;6.872;2022-10-16T03:27:37;14.80;72.10
17296;DHT22;8766;51.480;6.872;2022-10-16T03:30:05;14.80;72.80
17296;DHT22;8766;51.480;6.872;2022-10-16T03:32:32;14.80;72.20
17296;DHT22;8766;51.480;6.872;2022-10-16T03:34:59;14.80;72.20
17296;DHT22;8766;51.480;6.872;2022-10-16T03:37:26;14.80;72.20
17296;DHT22;8766;51.480;6.872;2022-10-16T03:39:54;14.80;72.30
17296;DHT22;8766;51.480;6.872;2022-10-16T03:42:21;14.80;72.30
17296;DHT22;8766;51.480;6.872;2022-10-16T03:44:48;14.80;72.30
17296;DHT22;8766;51.480;6.872;2022-10-16T03:47:15;14.80;72.40
17296;DHT22;8766;51.480;6.872;2022-10-16T03:49:46;14.70;72.40
17296;DHT22;8766;51.480;6.872;2022-10-16T03:52:12;14.70;72.40
17296;DHT22;8766;51.480;6.872;2022-10-16T03:54:39;14.70;72.50
17296;DHT22;8766;51.480;6.872;2022-10-16T03:57:07;14.60;72.60
17296;DHT22;8766;51.480;6.872;2022-10-16T03:59:34;14.60;72.60
17296;DHT22;8766;51.480;6.872;2022-10-16T04:02:01;14.60;72.80
17296;DHT22;8766;51.480;6.872;2022-10-16T04:04:28;14.50;72.80
17296;DHT22;8766;51.480;6.872;2022-10-16T04:06:55;14.50;72.80
17296;DHT22;8766;51.480;6.872;2022-10-16T04:09:22;14.50;72.90
17296;DHT22;8766;51.480;6.872;2022-10-16T04:11:49;14.50;72.90
17296;DHT22;8766;51.480;6.872;2022-10-16T04:14:17;14.50;72.90
17296;DHT22;8766;51.480;6.872;2022-10-16T04:16:44;14.50;72.90
17296;DHT22;8766;51.480;6.872;2022-10-16T04:19:11;14.50;72.90
17296;DHT22;8766;51.480;6.872;2022-10-16T04:21:38;14.50;72.90
17296;DHT22;8766;51.480;6.872;2022-10-16T04:24:05;14.50;72.80
17296;DHT22;8766;51.480;6.872;2022-10-16T04:26:32;14.50;72.80
17296;DHT22;8766;51.480;6.872;2022-10-16T04:28:59;14.50;72.80
17296;DHT22;8766;51.480;6.872;2022-10-16T04:31:28;14.50;72.80
17296;DHT22;8766;51.480;6.872;2022-10-16T04:33:54;14.50;72.90
17296;DHT22;8766;51.480;6.872;2022-10-16T04:36:21;14.40;72.80
17296;DHT22;8766;51.480;6.872;2022-10-16T04:38:48;14.40;72.90
17296;DHT22;8766;51.480;6.872;2022-10-16T04:41:15;14.40;72.90
17296;DHT22;8766;51.480;6.872;2022-10-16T04:43:42;14.40;72.90
17296;DHT22;8766;51.480;6.872;2022-10-16T04:46:09;14.40;72.90
17296;DHT22;8766;51.480;6.872;2022-10-16T04:48:37;14.40;73.00
17296;DHT22;8766;51.480;6.872;2022-10-16T04:51:04;14.40;73.00
17296;DHT22;8766;51.480;6.872;2022-10-16T04:53:31;14.40;73.10
17296;DHT22;8766;51.480;6.872;2022-10-16T04:55:58;14.40;73.10
17296;DHT22;8766;51.480;6.872;2022-10-16T04:58:25;14.40;73.10
17296;DHT22;8766;51.480;6.872;2022-10-16T05:00:52;14.40;73.00
17296;DHT22;8766;51.480;6.872;2022-10-16T05:03:19;14.40;73.00
17296;DHT22;8766;51.480;6.872;2022-10-16T05:05:48;14.40;73.00
17296;DHT22;8766;51.480;6.872;2022-10-16T05:08:15;14.40;73.00
17296;DHT22;8766;51.480;6.872;2022-10-16T05:10:43;14.40;72.90
17296;DHT22;8766;51.480;6.872;2022-10-16T05:13:10;14.40;72.90
17296;DHT22;8766;51.480;6.872;2022-10-16T05:15:38;14.40;72.90
17296;DHT22;8766;51.480;6.872;2022-10-16T05:18:04;14.40;72.80
17296;DHT22;8766;51.480;6.872;2022-10-16T05:20:31;14.40;72.80
17296;DHT22;8766;51.480;6.872;2022-10-16T05:22:59;14.40;72.70
17296;DHT22;8766;51.480;6.872;2022-10-16T05:25:26;14.40;72.70
17296;DHT22;8766;51.480;6.872;2022-10-16T05:27:53;14.40;72.70
17296;DHT22;8766;51.480;6.872;2022-10-16T05:30:20;14.40;72.70
17296;DHT22;8766;51.480;6.872;2022-10-16T05:32:47;14.40;72.70
17296;DHT22;8766;51.480;6.872;2022-10-16T05:35:15;14.40;72.70
17296;DHT22;8766;51.480;6.872;2022-10-16T05:37:41;14.40;72.70
17296;DHT22;8766;51.480;6.872;2022-10-16T05:40:11;14.40;72.70
17296;DHT22;8766;51.480;6.872;2022-10-16T05:42:38;14.40;72.70
17296;DHT22;8766;51.480;6.872;2022-10-16T05:45:07;14.40;72.70
17296;DHT22;8766;51.480;6.872;2022-10-16T05:47:35;14.40;72.80
17296;DHT22;8766;51.480;6.872;2022-10-16T05:50:02;14.40;72.80
17296;DHT22;8766;51.480;6.872;2022-10-16T05:52:29;14.40;72.70
17296;DHT22;8766;51.480;6.872;2022-10-16T05:54:56;14.40;72.70
17296;DHT22;8766;51.480;6.872;2022-10-16T05:57:24;14.40;72.70
17296;DHT22;8766;51.480;6.872;2022-10-16T05:59:51;14.40;72.70
17296;DHT22;8766;51.480;6.872;2022-10-16T06:02:18;14.40;72.70
17296;DHT22;8766;51.480;6.872;2022-10-16T06:04:45;14.40;72.80
17296;DHT22;8766;51.480;6.872;2022-10-16T06:07:12;14.40;72.80
17296;DHT22;8766;51.480;6.872;2022-10-16T06:09:39;14.40;72.80
17296;DHT22;8766;51.480;6.872;2022-10-16T06:12:06;14.40;72.90
17296;DHT22;8766;51.480;6.872;2022-10-16T06:14:34;14.40;73.00
17296;DHT22;8766;51.480;6.872;2022-10-16T06:17:01;14.40;73.00
17296;DHT22;8766;51.480;6.872;2022-10-16T06:19:27;14.40;73.00
17296;DHT22;8766;51.480;6.872;2022-10-16T06:21:54;14.40;73.00
17296;DHT22;8766;51.480;6.872;2022-10-16T06:24:23;14.40;72.90
17296;DHT22;8766;51.480;6.872;2022-10-16T06:26:50;14.40;72.90
17296;DHT22;8766;51.480;6.872;2022-10-16T06:29:17;14.40;72.80
17296;DHT22;8766;51.480;6.872;2022-10-16T06:31:45;14.40;72.70
17296;DHT22;8766;51.480;6.872;2022-10-16T06:34:12;14.50;72.70
17296;DHT22;8766;51.480;6.872;2022-10-16T06:36:39;14.50;72.50
17296;DHT22;8766;51.480;6.872;2022-10-16T06:39:06;14.60;72.50
17296;DHT22;8766;51.480;6.872;2022-10-16T06:41:34;14.60;72.30
17296;DHT22;8766;51.480;6.872;2022-10-16T06:44:01;14.70;72.30
17296;DHT22;8766;51.480;6.872;2022-10-16T06:46:28;14.70;72.10
17296;DHT22;8766;51.480;6.872;2022-10-16T06:48:56;14.80;72.00
17296;DHT22;8766;51.480;6.872;2022-10-16T06:51:23;14.80;71.80
17296;DHT22;8766;51.480;6.872;2022-10-16T06:53:52;14.90;71.70
17296;DHT22;8766;51.480;6.872;2022-10-16T06:56:20;15.00;71.60
17296;DHT22;8766;51.480;6.872;2022-10-16T06:58:48;15.00;71.50
17296;DHT22;8766;51.480;6.872;2022-10-16T07:01:17;15.00;71.40
17296;DHT22;8766;51.480;6.872;2022-10-16T07:03:45;15.00;71.40
17296;DHT22;8766;51.480;6.872;2022-10-16T07:06:16;15.00;71.50
17296;DHT22;8766;51.480;6.872;2022-10-16T07:08:45;15.00;71.60
17296;DHT22;8766;51.480;6.872;2022-10-16T07:11:13;14.90;71.60
17296;DHT22;8766;51.480;6.872;2022-10-16T07:13:42;14.90;71.70
17296;DHT22;8766;51.480;6.872;2022-10-16T07:16:11;14.90;71.80
17296;DHT22;8766;51.480;6.872;2022-10-16T07:18:38;14.80;71.90
17296;DHT22;8766;51.480;6.872;2022-10-16T07:21:06;14.80;71.90
17296;DHT22;8766;51.480;6.872;2022-10-16T07:23:35;14.80;72.00
17296;DHT22;8766;51.480;6.872;2022-10-16T07:26:02;14.80;72.10
17296;DHT22;8766;51.480;6.872;2022-10-16T07:28:29;14.80;72.10
17296;DHT22;8766;51.480;6.872;2022-10-16T07:30:59;14.80;72.10
17296;DHT22;8766;51.480;6.872;2022-10-16T07:33:26;14.80;72.10
17296;DHT22;8766;51.480;6.872;2022-10-16T07:35:54;14.80;72.00
17296;DHT22;8766;51.480;6.872;2022-10-16T07:38:21;14.90;71.90
17296;DHT22;8766;51.480;6.872;2022-10-16T07:40:56;15.00;71.70
17296;DHT22;8766;51.480;6.872;2022-10-16T07:43:23;14.90;71.70
17296;DHT22;8766;51.480;6.872;2022-10-16T07:45:51;15.00;71.70
17296;DHT22;8766;51.480;6.872;2022-10-16T07:48:18;15.00;71.60
17296;DHT22;8766;51.480;6.872;2022-10-16T07:50:45;15.00;71.50
17296;DHT22;8766;51.480;6.872;2022-10-16T07:53:12;15.10;71.50
17296;DHT22;8766;51.480;6.872;2022-10-16T07:55:39;15.30;71.40
17296;DHT22;8766;51.480;6.872;2022-10-16T07:58:08;16.10;69.90
17296;DHT22;8766;51.480;6.872;2022-10-16T08:00:36;16.60;68.10
17296;DHT22;8766;51.480;6.872;2022-10-16T08:03:03;17.10;67.20
17296;DHT22;8766;51.480;6.872;2022-10-16T08:05:31;17.60;66.10
17296;DHT22;8766;51.480;6.872;2022-10-16T08:07:59;18.10;65.00
17296;DHT22;8766;51.480;6.872;2022-10-16T08:10:27;18.80;63.50
17296;DHT22;8766;51.480;6.872;2022-10-16T08:12:55;19.20;62.50
17296;DHT22;8766;51.480;6.872;2022-10-16T08:15:23;19.20;63.30
17296;DHT22;8766;51.480;6.872;2022-10-16T08:17:57;18.70;63.40
17296;DHT22;8766;51.480;6.872;2022-10-16T08:20:25;18.30;64.70
17296;DHT22;8766;51.480;6.872;2022-10-16T08:22:52;18.00;65.60
17296;DHT22;8766;51.480;6.872;2022-10-16T08:25:19;18.00;66.20
17296;DHT22;8766;51.480;6.872;2022-10-16T08:27:46;18.30;65.70
17296;DHT22;8766;51.480;6.872;2022-10-16T08:30:13;19.00;64.30
17296;DHT22;8766;51.480;6.872;2022-10-16T08:32:42;20.10;62.10
17296;DHT22;8766;51.480;6.872;2022-10-16T08:35:09;21.40;59.40
17296;DHT22;8766;51.480;6.872;2022-10-16T08:37:36;22.80;57.20
17296;DHT22;8766;51.480;6.872;2022-10-16T08:40:05;24.10;55.00
17296;DHT22;8766;51.480;6.872;2022-10-16T08:42:41;25.20;53.30
17296;DHT22;8766;51.480;6.872;2022-10-16T08:45:19;26.10;52.20
17296;DHT22;8766;51.480;6.872;2022-10-16T08:48:00;26.90;51.30
17296;DHT22;8766;51.480;6.872;2022-10-16T08:50:36;27.60;50.70
17296;DHT22;8766;51.480;6.872;2022-10-16T08:53:04;28.10;50.20
17296;DHT22;8766;51.480;6.872;2022-10-16T08:55:37;28.40;49.90
17296;DHT22;8766;51.480;6.872;2022-10-16T08:58:12;28.80;49.60
17296;DHT22;8766;51.480;6.872;2022-10-16T09:00:39;29.20;49.40
17296;DHT22;8766;51.480;6.872;2022-10-16T09:03:16;29.50;49.20
17296;DHT22;8766;51.480;6.872;2022-10-16T09:05:54;29.80;49.60
17296;DHT22;8766;51.480;6.872;2022-10-16T09:08:31;30.10;49.00
17296;DHT22;8766;51.480;6.872;2022-10-16T09:11:06;30.20;48.90
17296;DHT22;8766;51.480;6.872;2022-10-16T09:13:40;30.40;49.00
17296;DHT22;8766;51.480;6.872;2022-10-16T09:16:14;30.40;49.10
17296;DHT22;8766;51.480;6.872;2022-10-16T09:18:51;30.50;49.20
17296;DHT22;8766;51.480;6.872;2022-10-16T09:21:25;30.50;49.20
17296;DHT22;8766;51.480;6.872;2022-10-16T09:23:54;30.50;49.40
17296;DHT22;8766;51.480;6.872;2022-10-16T09:26:23;30.60;49.50
17296;DHT22;8766;51.480;6.872;2022-10-16T09:28:52;30.60;49.50
17296;DHT22;8766;51.480;6.872;2022-10-16T09:31:20;30.50;49.70
17296;DHT22;8766;51.480;6.872;2022-10-16T09:33:51;30.60;49.60
17296;DHT22;8766;51.480;6.872;2022-10-16T09:36:20;30.80;49.50
17296;DHT22;8766;51.480;6.872;2022-10-16T09:38:47;30.90;49.50
17296;DHT22;8766;51.480;6.872;2022-10-16T09:41:18;30.80;49.60
17296;DHT22;8766;51.480;6.872;2022-10-16T09:43:52;30.80;49.60
17296;DHT22;8766;51.480;6.872;2022-10-16T09:46:24;30.90;49.60
17296;DHT22;8766;51.480;6.872;2022-10-16T09:48:54;30.80;49.40
17296;DHT22;8766;51.480;6.872;2022-10-16T09:51:25;30.70;49.30
17296;DHT22;8766;51.480;6.872;2022-10-16T09:53:56;30.30;49.80
17296;DHT22;8766;51.480;6.872;2022-10-16T09:56:25;29.80;50.50
17296;DHT22;8766;51.480;6.872;2022-10-16T09:58:54;29.60;50.60
17296;DHT22;8766;51.480;6.872;2022-10-16T10:01:24;29.10;51.10
17296;DHT22;8766;51.480;6.872;2022-10-16T10:03:56;28.30;52.10
17296;DHT22;8766;51.480;6.872;2022-10-16T10:06:29;27.60;53.00
17296;DHT22;8766;51.480;6.872;2022-10-16T10:08:59;26.90;54.20
17296;DHT22;8766;51.480;6.872;2022-10-16T10:11:44;26.10;55.40
17296;DHT22;8766;51.480;6.872;2022-10-16T10:14:18;25.20;56.70
17296;DHT22;8766;51.480;6.872;2022-10-16T10:16:45;24.60;58.00
17296;DHT22;8766;51.480;6.872;2022-10-16T10:19:15;24.00;59.00
17296;DHT22;8766;51.480;6.872;2022-10-16T10:21:42;23.60;59.80
17296;DHT22;8766;51.480;6.872;2022-10-16T10:24:11;23.10;60.40
17296;DHT22;8766;51.480;6.872;2022-10-16T10:26:40;22.80;61.10
17296;DHT22;8766;51.480;6.872;2022-10-16T10:29:17;22.50;61.50
17296;DHT22;8766;51.480;6.872;2022-10-16T10:31:49;22.30;61.90
17296;DHT22;8766;51.480;6.872;2022-10-16T10:34:33;22.10;62.10
17296;DHT22;8766;51.480;6.872;2022-10-16T10:37:06;22.00;62.30
17296;DHT22;8766;51.480;6.872;2022-10-16T10:39:43;21.90;62.50
17296;DHT22;8766;51.480;6.872;2022-10-16T10:42:20;21.70;62.60
17296;DHT22;8766;51.480;6.872;2022-10-16T10:44:57;21.50;62.80
17296;DHT22;8766;51.480;6.872;2022-10-16T10:47:35;21.50;63.00
17296;DHT22;8766;51.480;6.872;2022-10-16T10:50:14;21.40;62.80
17296;DHT22;8766;51.480;6.872;2022-10-16T10:52:53;21.30;62.90
17296;DHT22;8766;51.480;6.872;2022-10-16T10:55:29;21.20;63.00
17296;DHT22;8766;51.480;6.872;2022-10-16T10:58:15;21.10;63.00
17296;DHT22;8766;51.480;6.872;2022-10-16T11:00:51;21.10;63.00
17296;DHT22;8766;51.480;6.872;2022-10-16T11:03:31;21.00;63.00
17296;DHT22;8766;51.480;6.872;2022-10-16T11:06:07;21.00;63.10
17296;DHT22;8766;51.480;6.872;2022-10-16T11:08:37;20.90;63.00
17296;DHT22;8766;51.480;6.872;2022-10-16T11:11:11;20.90;62.90
17296;DHT22;8766;51.480;6.872;2022-10-16T11:13:45;20.90;62.80
17296;DHT22;8766;51.480;6.872;2022-10-16T11:16:20;21.00;62.70
17296;DHT22;8766;51.480;6.872;2022-10-16T11:18:54;20.90;62.60
17296;DHT22;8766;51.480;6.872;2022-10-16T11:21:25;20.90;62.60
17296;DHT22;8766;51.480;6.872;2022-10-16T11:24:00;20.90;62.60
17296;DHT22;8766;51.480;6.872;2022-10-16T11:26:32;20.90;62.50
17296;DHT22;8766;51.480;6.872;2022-10-16T11:29:03;20.90;62.50
17296;DHT22;8766;51.480;6.872;2022-10-16T11:31:36;20.90;62.40
17296;DHT22;8766;51.480;6.872;2022-10-16T11:34:09;20.90;62.30
17296;DHT22;8766;51.480;6.872;2022-10-16T11:36:46;21.00;62.10
17296;DHT22;8766;51.480;6.872;2022-10-16T11:39:20;21.00;62.00
17296;DHT22;8766;51.480;6.872;2022-10-16T11:41:50;21.00;61.90
17296;DHT22;8766;51.480;6.872;2022-10-16T11:44:34;20.90;62.00
17296;DHT22;8766;51.480;6.872;2022-10-16T11:47:12;20.90;62.10
17296;DHT22;8766;51.480;6.872;2022-10-16T11:49:40;20.90;62.80
17296;DHT22;8766;51.480;6.872;2022-10-16T11:52:13;20.80;62.10
17296;DHT22;8766;51.480;6.872;2022-10-16T11:54:47;20.70;62.20
17296;DHT22;8766;51.480;6.872;2022-10-16T11:57:19;20.60;62.40
17296;DHT22;8766;51.480;6.872;2022-10-16T11:59:50;20.50;62.50
17296;DHT22;8766;51.480;6.872;2022-10-16T12:02:41;20.40;62.70
17296;DHT22;8766;51.480;6.872;2022-10-16T12:05:20;20.30;62.90
17296;DHT22;8766;51.480;6.872;2022-10-16T12:07:56;20.40;62.80
17296;DHT22;8766;51.480;6.872;2022-10-16T12:10:28;20.50;62.50
17296;DHT22;8766;51.480;6.872;2022-10-16T12:12:57;20.60;62.20
17296;DHT22;8766;51.480;6.872;2022-10-16T12:15:25;20.60;62.10
17296;DHT22;8766;51.480;6.872;2022-10-16T12:17:53;20.60;62.10
17296;DHT22;8766;51.480;6.872;2022-10-16T12:20:26;20.60;62.00
17296;DHT22;8766;51.480;6.872;2022-10-16T12:22:59;20.60;62.10
17296;DHT22;8766;51.480;6.872;2022-10-16T12:25:28;20.60;62.00
17296;DHT22;8766;51.480;6.872;2022-10-16T12:27:58;20.60;62.10
17296;DHT22;8766;51.480;6.872;2022-10-16T12:30:27;20.50;62.00
17296;DHT22;8766;51.480;6.872;2022-10-16T12:32:56;20.50;62.10
17296;DHT22;8766;51.480;6.872;2022-10-16T12:35:26;20.50;62.00
17296;DHT22;8766;51.480;6.872;2022-10-16T12:38:03;20.40;62.10
17296;DHT22;8766;51.480;6.872;2022-10-16T12:40:34;20.40;62.30
17296;DHT22;8766;51.480;6.872;2022-10-16T12:43:12;20.40;62.30
17296;DHT22;8766;51.480;6.872;2022-10-16T12:45:39;20.40;62.30
17296;DHT22;8766;51.480;6.872;2022-10-16T12:48:19;20.50;62.10
17296;DHT22;8766;51.480;6.872;2022-10-16T12:50:47;20.60;61.70
17296;DHT22;8766;51.480;6.872;2022-10-16T12:53:19;20.70;61.50
17296;DHT22;8766;51.480;6.872;2022-10-16T12:55:54;20.70;61.50
17296;DHT22;8766;51.480;6.872;2022-10-16T13:01:19;20.60;61.70
17296;DHT22;8766;51.480;6.872;2022-10-16T13:04:10;20.60;61.70
17296;DHT22;8766;51.480;6.872;2022-10-16T13:06:45;20.60;61.70
17296;DHT22;8766;51.480;6.872;2022-10-16T13:09:23;20.50;61.60
17296;DHT22;8766;51.480;6.872;2022-10-16T13:12:12;20.50;61.60
17296;DHT22;8766;51.480;6.872;2022-10-16T13:15:05;20.50;61.70
17296;DHT22;8766;51.480;6.872;2022-10-16T13:17:41;20.40;61.80
17296;DHT22;8766;51.480;6.872;2022-10-16T13:20:18;20.30;62.00
17296;DHT22;8766;51.480;6.872;2022-10-16T13:22:53;20.30;62.10
17296;DHT22;8766;51.480;6.872;2022-10-16T13:25:30;20.30;62.10
17296;DHT22;8766;51.480;6.872;2022-10-16T13:28:01;20.30;62.10
17296;DHT22;8766;51.480;6.872;2022-10-16T13:30:30;20.30;62.10
17296;DHT22;8766;51.480;6.872;2022-10-16T13:33:01;20.30;62.10
17296;DHT22;8766;51.480;6.872;2022-10-16T13:35:30;20.30;62.10
17296;DHT22;8766;51.480;6.872;2022-10-16T13:38:14;20.20;62.10
17296;DHT22;8766;51.480;6.872;2022-10-16T13:40:52;20.20;62.30
17296;DHT22;8766;51.480;6.872;2022-10-16T13:43:23;20.10;62.40
17296;DHT22;8766;51.480;6.872;2022-10-16T13:45:59;20.10;62.40
17296;DHT22;8766;51.480;6.872;2022-10-16T13:48:27;20.00;62.40
17296;DHT22;8766;51.480;6.872;2022-10-16T13:51:12;20.00;62.40
17296;DHT22;8766;51.480;6.872;2022-10-16T13:53:39;20.00;62.30
17296;DHT22;8766;51.480;6.872;2022-10-16T13:56:09;20.10;62.30
17296;DHT22;8766;51.480;6.872;2022-10-16T13:58:38;20.10;62.20
17296;DHT22;8766;51.480;6.872;2022-10-16T14:01:15;20.10;62.10
17296;DHT22;8766;51.480;6.872;2022-10-16T14:03:43;20.20;62.10
17296;DHT22;8766;51.480;6.872;2022-10-16T14:06:13;20.20;61.90
17296;DHT22;8766;51.480;6.872;2022-10-16T14:08:43;20.20;61.80
17296;DHT22;8766;51.480;6.872;2022-10-16T14:11:11;20.30;61.70
17296;DHT22;8766;51.480;6.872;2022-10-16T14:13:44;20.30;61.70
17296;DHT22;8766;51.480;6.872;2022-10-16T14:16:18;20.30;61.70
17296;DHT22;8766;51.480;6.872;2022-10-16T14:18:52;20.20;61.80
17296;DHT22;8766;51.480;6.872;2022-10-16T14:21:21;20.10;62.00
17296;DHT22;8766;51.480;6.872;2022-10-16T14:23:48;20.00;62.20
17296;DHT22;8766;51.480;6.872;2022-10-16T14:26:18;19.90;62.30
17296;DHT22;8766;51.480;6.872;2022-10-16T14:28:48;19.90;62.50
17296;DHT22;8766;51.480;6.872;2022-10-16T14:31:27;19.90;62.50
17296;DHT22;8766;51.480;6.872;2022-10-16T14:33:54;19.80;62.60
17296;DHT22;8766;51.480;6.872;2022-10-16T14:36:22;19.80;62.50
17296;DHT22;8766;51.480;6.872;2022-10-16T14:38:59;19.80;62.60
17296;DHT22;8766;51.480;6.872;2022-10-16T14:41:28;19.80;62.60
17296;DHT22;8766;51.480;6.872;2022-10-16T14:44:01;19.80;62.60
17296;DHT22;8766;51.480;6.872;2022-10-16T14:46:32;19.80;62.50
17296;DHT22;8766;51.480;6.872;2022-10-16T14:49:03;19.70;62.30
17296;DHT22;8766;51.480;6.872;2022-10-16T14:51:31;19.80;62.40
17296;DHT22;8766;51.480;6.872;2022-10-16T14:53:58;19.80;62.40
17296;DHT22;8766;51.480;6.872;2022-10-16T14:56:28;19.80;62.40
17296;DHT22;8766;51.480;6.872;2022-10-16T14:58:57;19.80;62.50
17296;DHT22;8766;51.480;6.872;2022-10-16T15:01:24;19.80;62.50
17296;DHT22;8766;51.480;6.872;2022-10-16T15:03:51;19.80;62.50
17296;DHT22;8766;51.480;6.872;2022-10-16T15:06:20;19.80;62.50
17296;DHT22;8766;51.480;6.872;2022-10-16T15:08:47;19.70;62.40
17296;DHT22;8766;51.480;6.872;2022-10-16T15:11:15;19.70;62.50
17296;DHT22;8766;51.480;6.872;2022-10-16T15:13:43;19.70;62.60
17296;DHT22;8766;51.480;6.872;2022-10-16T15:16:13;19.60;62.70
17296;DHT22;8766;51.480;6.872;2022-10-16T15:18:40;19.50;62.70
17296;DHT22;8766;51.480;6.872;2022-10-16T15:21:07;19.50;62.90
17296;DHT22;8766;51.480;6.872;2022-10-16T15:23:34;19.50;63.00
17296;DHT22;8766;51.480;6.872;2022-10-16T15:26:01;19.50;63.00
17296;DHT22;8766;51.480;6.872;2022-10-16T15:28:28;19.50;63.00
17296;DHT22;8766;51.480;6.872;2022-10-16T15:30:57;19.40;63.00
17296;DHT22;8766;51.480;6.872;2022-10-16T15:33:27;19.40;63.00
17296;DHT22;8766;51.480;6.872;2022-10-16T15:35:58;19.40;63.00
17296;DHT22;8766;51.480;6.872;2022-10-16T15:38:26;19.40;63.00
17296;DHT22;8766;51.480;6.872;2022-10-16T15:40:54;19.30;63.00
17296;DHT22;8766;51.480;6.872;2022-10-16T15:43:21;19.30;63.10
17296;DHT22;8766;51.480;6.872;2022-10-16T15:45:59;19.30;63.20
17296;DHT22;8766;51.480;6.872;2022-10-16T15:48:28;19.30;63.20
17296;DHT22;8766;51.480;6.872;2022-10-16T15:50:55;19.30;63.20
17296;DHT22;8766;51.480;6.872;2022-10-16T15:53:22;19.20;63.30
17296;DHT22;8766;51.480;6.872;2022-10-16T15:55:48;19.20;63.30
17296;DHT22;8766;51.480;6.872;2022-10-16T15:58:16;19.10;63.40
17296;DHT22;8766;51.480;6.872;2022-10-16T16:00:43;19.10;63.50
17296;DHT22;8766;51.480;6.872;2022-10-16T16:03:09;19.00;63.60
17296;DHT22;8766;51.480;6.872;2022-10-16T16:05:39;19.00;63.70